Time;durP1;ratioP1;P1;durP2;ratioP2;P2;SDS_P1;SDS_P2;PMS_P1;PMS_P2;Temp;Humidity;BMP_temperature;BMP_pressure;BME280_temperature;BME280_humidity;BME280_pressure;Samples;Min_cycle;Max_cycle;Signal;HPM_P1;HPM_P2
2022/03/06 00:00:55;;;;;;;5.72;1.85;;;24.90;79.60;;;;;;5154342;22;20697;-66
2022/03/06 00:03:17;;;;;;;4.90;2.28;;;24.80;79.40;;;;;;5153135;22;20011;-67
2022/03/06 00:05:40;;;;;;;3.60;1.60;;;24.80;79.60;;;;;;5159746;22;20027;-66
2022/03/06 00:08:02;;;;;;;2.58;1.30;;;24.90;79.70;;;;;;5146086;22;20016;-67
2022/03/06 00:10:26;;;;;;;4.43;1.67;;;24.90;79.50;;;;;;5154877;22;20035;-66
2022/03/06 00:12:48;;;;;;;3.45;1.77;;;24.80;79.60;;;;;;5158229;22;20062;-66
2022/03/06 00:15:11;;;;;;;4.65;1.67;;;24.80;79.60;;;;;;5155005;22;20348;-67
2022/03/06 00:17:33;;;;;;;6.25;2.35;;;24.80;79.80;;;;;;5153833;22;20027;-66
2022/03/06 00:19:56;;;;;;;4.90;2.20;;;24.90;79.90;;;;;;5157417;22;20012;-65
2022/03/06 00:22:19;;;;;;;4.18;1.70;;;24.90;79.90;;;;;;5155412;22;20016;-67
2022/03/06 00:24:41;;;;;;;5.93;2.00;;;24.90;80.00;;;;;;5152437;22;20046;-66
2022/03/06 00:27:04;;;;;;;4.45;1.70;;;24.90;79.70;;;;;;5154732;22;20015;-66
2022/03/06 00:29:27;;;;;;;6.20;2.13;;;24.80;79.70;;;;;;5155299;22;20459;-67
2022/03/06 00:31:49;;;;;;;4.05;1.63;;;24.90;79.80;;;;;;5153568;22;20031;-66
2022/03/06 00:34:12;;;;;;;6.03;1.75;;;24.90;80.00;;;;;;5156325;22;20584;-66
2022/03/06 00:36:37;;;;;;;4.75;1.80;;;24.80;79.90;;;;;;5156979;22;20126;-66
2022/03/06 00:38:59;;;;;;;4.82;1.63;;;24.80;79.70;;;;;;5152865;22;20016;-66
2022/03/06 00:41:23;;;;;;;4.88;1.92;;;24.80;79.60;;;;;;5156824;22;20819;-66
2022/03/06 00:43:45;;;;;;;;;;;24.90;79.70;;;;;;5147325;22;20068;-66
2022/03/06 00:46:08;;;;;;;2.88;1.30;;;24.90;79.40;;;;;;5151093;22;20335;-65
2022/03/06 00:48:30;;;;;;;2.95;1.15;;;24.90;79.50;;;;;;5157124;22;20026;-67
2022/03/06 00:50:53;;;;;;;3.53;1.67;;;24.80;79.80;;;;;;5157852;22;20024;-66
2022/03/06 00:53:16;;;;;;;4.85;1.50;;;24.80;79.70;;;;;;5153624;22;20046;-65
2022/03/06 00:55:38;;;;;;;3.97;1.55;;;24.90;79.60;;;;;;5158029;22;20454;-66
2022/03/06 00:58:06;;;;;;;3.50;1.50;;;24.90;79.40;;;;;;5161914;22;20544;-67
2022/03/06 01:00:29;;;;;;;4.78;1.20;;;24.80;79.40;;;;;;5154081;22;20091;-67
2022/03/06 01:02:51;;;;;;;3.53;1.35;;;24.80;79.40;;;;;;5161051;22;20015;-65
2022/03/06 01:05:14;;;;;;;3.60;1.75;;;24.80;79.20;;;;;;5157858;22;20164;-65
2022/03/06 01:07:36;;;;;;;3.17;1.40;;;24.80;79.30;;;;;;5127078;22;20145;-66
2022/03/06 01:09:59;;;;;;;4.72;1.73;;;24.80;79.40;;;;;;5162415;22;20523;-66
2022/03/06 01:12:22;;;;;;;2.03;1.23;;;24.80;79.30;;;;;;5159419;22;20020;-66
2022/03/06 01:14:45;;;;;;;3.17;1.20;;;24.80;79.20;;;;;;5160076;22;20106;-66
2022/03/06 01:17:07;;;;;;;2.90;1.50;;;24.80;79.20;;;;;;5160064;22;20252;-66
2022/03/06 01:19:30;;;;;;;4.32;1.80;;;24.80;79.20;;;;;;5161202;22;20325;-64
2022/03/06 01:21:52;;;;;;;3.83;1.52;;;24.80;79.40;;;;;;5127753;22;20016;-66
2022/03/06 01:24:15;;;;;;;3.63;1.45;;;24.80;79.40;;;;;;5158528;22;20011;-65
2022/03/06 01:26:37;;;;;;;3.15;1.27;;;24.80;79.20;;;;;;5160935;22;20020;-68
2022/03/06 01:29:00;;;;;;;2.45;1.50;;;24.80;79.10;;;;;;5126754;22;20012;-68
2022/03/06 01:31:22;;;;;;;4.10;1.67;;;24.80;79.20;;;;;;5157870;22;20020;-64
2022/03/06 01:33:45;;;;;;;4.85;1.50;;;24.80;79.40;;;;;;5161390;22;20050;-67
2022/03/06 01:36:07;;;;;;;4.10;1.30;;;24.90;79.30;;;;;;5154258;22;20038;-69
2022/03/06 01:38:30;;;;;;;2.67;1.40;;;24.80;79.20;;;;;;5158733;22;20119;-66
2022/03/06 01:40:52;;;;;;;5.72;1.67;;;24.90;79.60;;;;;;5164211;22;20015;-66
2022/03/06 01:43:15;;;;;;;5.07;1.38;;;24.90;79.80;;;;;;5158014;22;20026;-67
2022/03/06 01:45:37;;;;;;;4.28;1.52;;;24.90;79.60;;;;;;5156081;22;20046;-67
2022/03/06 01:48:03;;;;;;;6.18;1.70;;;24.90;79.60;;;;;;5160771;22;20016;-67
2022/03/06 01:50:29;;;;;;;3.35;1.65;;;24.90;79.50;;;;;;5154833;22;20128;-68
2022/03/06 01:52:53;;;;;;;4.88;1.90;;;24.90;79.60;;;;;;5158269;22;20016;-68
2022/03/06 01:55:18;;;;;;;5.10;1.85;;;24.90;79.50;;;;;;5158642;22;20100;-69
2022/03/06 01:57:42;;;;;;;4.47;1.77;;;24.90;80.20;;;;;;5158827;22;20359;-69
2022/03/06 02:00:08;;;;;;;6.05;1.98;;;25.00;79.90;;;;;;5163296;22;20022;-67
2022/03/06 02:02:30;;;;;;;4.65;1.70;;;25.00;79.90;;;;;;5159268;22;20744;-66
2022/03/06 02:04:53;;;;;;;2.55;1.42;;;25.00;79.70;;;;;;5158264;22;20098;-64
2022/03/06 02:07:15;;;;;;;4.93;1.80;;;25.00;79.50;;;;;;5162702;22;20110;-65
2022/03/06 02:09:38;;;;;;;5.82;1.95;;;25.00;79.50;;;;;;5156234;22;20426;-69
2022/03/06 02:14:41;;;;;;;4.35;1.80;;;25.00;79.50;;;;;;5158118;22;20015;-69
2022/03/06 02:17:04;;;;;;;4.00;1.55;;;25.10;79.60;;;;;;5130953;22;20023;-67
2022/03/06 02:19:29;;;;;;;4.07;1.98;;;25.00;79.40;;;;;;5164412;22;20452;-71
2022/03/06 02:21:51;;;;;;;4.18;1.80;;;25.10;79.80;;;;;;5157906;22;20062;-68
2022/03/06 02:24:14;;;;;;;6.18;2.13;;;25.10;79.80;;;;;;5158981;22;20982;-70
2022/03/06 02:26:39;;;;;;;3.75;1.60;;;25.10;79.80;;;;;;5161216;22;20026;-70
2022/03/06 02:29:01;;;;;;;4.65;2.45;;;25.10;79.70;;;;;;5160008;22;20091;-67
2022/03/06 02:31:24;;;;;;;5.25;2.20;;;25.10;79.80;;;;;;5160713;22;20019;-68
2022/03/06 02:33:46;;;;;;;3.67;1.55;;;25.10;79.90;;;;;;5162068;22;20106;-69
2022/03/06 02:36:09;;;;;;;4.65;1.95;;;25.10;79.90;;;;;;5156535;22;20011;-69
2022/03/06 02:38:31;;;;;;;6.30;1.98;;;25.20;79.80;;;;;;5157809;22;20018;-69
2022/03/06 02:40:55;;;;;;;4.47;1.70;;;25.20;79.80;;;;;;5159864;22;20214;-69
2022/03/06 02:43:17;;;;;;;8.00;2.60;;;25.20;79.70;;;;;;5125918;22;20016;-69
2022/03/06 02:45:40;;;;;;;6.13;2.00;;;25.20;79.50;;;;;;5159506;22;20020;-71
2022/03/06 02:48:03;;;;;;;6.55;2.13;;;25.20;79.50;;;;;;5163905;22;20047;-70
2022/03/06 02:50:29;;;;;;;3.60;2.00;;;25.20;79.50;;;;;;5127624;22;20558;-69
2022/03/06 02:52:54;;;;;;;4.20;1.90;;;25.20;79.60;;;;;;5161093;22;20969;-71
2022/03/06 02:55:17;;;;;;;4.72;2.22;;;25.20;79.50;;;;;;5158332;22;20141;-71
2022/03/06 02:57:40;;;;;;;5.13;1.95;;;25.30;79.40;;;;;;5156939;22;20015;-71
2022/03/06 03:00:06;;;;;;;4.93;2.00;;;25.20;79.20;;;;;;5161488;22;20011;-71
2022/03/06 03:02:28;;;;;;;4.32;1.92;;;25.20;79.30;;;;;;5157591;22;20131;-71
2022/03/06 03:04:51;;;;;;;6.03;2.42;;;25.30;79.20;;;;;;5157541;22;20318;-68
2022/03/06 03:07:13;;;;;;;4.28;2.08;;;25.30;79.20;;;;;;5167121;22;20026;-71
2022/03/06 03:09:36;;;;;;;5.60;2.10;;;25.20;79.20;;;;;;5166522;22;20012;-70
2022/03/06 03:11:58;;;;;;;4.55;1.70;;;25.30;79.10;;;;;;5168196;22;20442;-72
2022/03/06 03:14:21;;;;;;;4.43;1.67;;;25.30;78.90;;;;;;5169578;22;20014;-71
2022/03/06 03:16:44;;;;;;;3.17;1.50;;;25.20;78.90;;;;;;5131154;22;20016;-71
2022/03/06 03:19:06;;;;;;;3.88;1.60;;;25.20;79.20;;;;;;5163034;22;20015;-70
2022/03/06 03:21:29;;;;;;;3.90;1.65;;;25.20;79.50;;;;;;5166415;22;20007;-69
2022/03/06 03:23:52;;;;;;;3.65;1.90;;;25.20;79.90;;;;;;5168687;22;20054;-69
2022/03/06 03:26:14;;;;;;;4.60;1.70;;;25.20;80.00;;;;;;5166953;22;20050;-71
2022/03/06 03:28:36;;;;;;;2.97;1.40;;;25.20;79.90;;;;;;5138018;22;20362;-71
2022/03/06 03:30:59;;;;;;;4.22;1.83;;;25.20;80.00;;;;;;5169665;22;20827;-73
2022/03/06 03:33:21;;;;;;;4.60;1.70;;;25.20;79.90;;;;;;5174854;22;20016;-70
2022/03/06 03:35:44;;;;;;;4.20;1.73;;;25.20;80.00;;;;;;5174562;22;20638;-68
2022/03/06 03:38:07;;;;;;;4.15;1.70;;;25.20;80.10;;;;;;5175497;22;20073;-70
2022/03/06 03:40:29;;;;;;;5.72;1.70;;;25.20;80.10;;;;;;5170502;22;20126;-69
2022/03/06 03:42:52;;;;;;;4.82;1.55;;;25.20;80.10;;;;;;5134984;22;20012;-68
2022/03/06 03:45:15;;;;;;;3.72;1.70;;;25.20;80.20;;;;;;5179922;22;20034;-69
2022/03/06 03:47:37;;;;;;;5.25;2.30;;;25.20;80.00;;;;;;5176803;22;20215;-69
2022/03/06 03:50:00;;;;;;;4.88;1.70;;;25.20;79.90;;;;;;5178485;22;20110;-69
2022/03/06 03:52:22;;;;;;;3.00;1.33;;;25.20;80.20;;;;;;5182901;22;20530;-69
2022/03/06 03:54:45;;;;;;;4.70;1.60;;;25.20;80.30;;;;;;5168956;22;20443;-70
2022/03/06 03:57:07;;;;;;;4.00;1.55;;;25.20;80.40;;;;;;5169778;22;20077;-69
2022/03/06 03:59:30;;;;;;;3.80;1.55;;;25.30;80.60;;;;;;5172125;22;20076;-68
2022/03/06 04:01:52;;;;;;;3.60;1.30;;;25.30;80.50;;;;;;5170180;22;20015;-70
2022/03/06 04:04:15;;;;;;;4.60;1.77;;;25.30;80.40;;;;;;5164627;22;20198;-68
2022/03/06 04:06:37;;;;;;;3.17;1.88;;;25.20;80.20;;;;;;5165623;22;20097;-68
2022/03/06 04:09:00;;;;;;;5.78;1.35;;;25.30;80.20;;;;;;5163487;22;20012;-71
2022/03/06 04:11:22;;;;;;;7.22;1.73;;;25.30;80.00;;;;;;5163656;22;20023;-70
2022/03/06 04:13:45;;;;;;;3.33;1.38;;;25.20;79.90;;;;;;5164021;22;20030;-69
2022/03/06 04:16:07;;;;;;;4.28;1.65;;;25.30;80.00;;;;;;5162254;22;20102;-69
2022/03/06 04:18:30;;;;;;;3.47;1.60;;;25.30;80.00;;;;;;5162402;22;20021;-70
2022/03/06 04:20:52;;;;;;;4.45;1.67;;;25.30;80.00;;;;;;5163791;22;20012;-69
2022/03/06 04:23:15;;;;;;;5.05;1.73;;;25.20;79.70;;;;;;5166015;22;20849;-71
2022/03/06 04:25:38;;;;;;;4.18;1.27;;;25.20;79.50;;;;;;5161361;22;20330;-69
2022/03/06 04:28:00;;;;;;;3.08;1.30;;;25.20;79.50;;;;;;5164410;22;20089;-72
2022/03/06 04:30:23;;;;;;;3.03;1.42;;;25.20;79.70;;;;;;5170524;22;20026;-73
2022/03/06 04:32:46;;;;;;;3.55;1.45;;;25.20;79.80;;;;;;5159902;22;20024;-71
2022/03/06 04:35:09;;;;;;;4.63;1.75;;;25.20;79.70;;;;;;5165980;22;20042;-70
2022/03/06 04:37:31;;;;;;;5.47;1.47;;;25.20;80.00;;;;;;5168337;22;20553;-72
2022/03/06 04:39:54;;;;;;;4.25;1.42;;;25.20;79.90;;;;;;5131284;22;20393;-69
2022/03/06 04:42:17;;;;;;;3.47;1.55;;;25.20;80.00;;;;;;5164529;22;20019;-69
2022/03/06 04:44:39;;;;;;;2.80;1.45;;;25.20;80.00;;;;;;5167876;22;20678;-70
2022/03/06 04:47:02;;;;;;;3.88;1.50;;;25.20;80.10;;;;;;5162771;22;20042;-71
2022/03/06 04:49:24;;;;;;;3.20;1.67;;;25.10;80.30;;;;;;5133678;22;20044;-71
2022/03/06 04:51:47;;;;;;;2.30;1.00;;;25.10;80.20;;;;;;5165509;22;20019;-71
2022/03/06 04:54:09;;;;;;;3.45;1.35;;;25.10;80.00;;;;;;5164946;22;20053;-72
2022/03/06 04:56:32;;;;;;;2.08;1.30;;;25.10;80.30;;;;;;5163731;22;20015;-71
2022/03/06 04:58:54;;;;;;;2.83;1.40;;;25.10;80.20;;;;;;5167523;22;20077;-72
2022/03/06 05:01:17;;;;;;;3.45;1.40;;;25.10;80.20;;;;;;5165056;22;20015;-70
2022/03/06 05:03:39;;;;;;;3.17;1.63;;;25.10;80.60;;;;;;5160281;22;20012;-71
2022/03/06 05:06:02;;;;;;;3.80;1.42;;;25.10;80.50;;;;;;5168946;22;20811;-72
2022/03/06 05:08:26;;;;;;;3.72;1.20;;;25.10;80.60;;;;;;5167317;22;20012;-72
2022/03/06 05:10:49;;;;;;;3.63;1.85;;;25.10;80.60;;;;;;5158765;22;20081;-71
2022/03/06 05:13:12;;;;;;;1.80;1.08;;;25.10;80.40;;;;;;5169952;22;20030;-73
2022/03/06 05:15:34;;;;;;;2.60;1.40;;;25.10;80.70;;;;;;5168151;22;20022;-68
2022/03/06 05:17:57;;;;;;;3.20;1.70;;;25.10;80.80;;;;;;5165859;22;20062;-68
2022/03/06 05:20:19;;;;;;;4.32;1.52;;;25.10;80.90;;;;;;5170221;22;20711;-69
2022/03/06 05:22:43;;;;;;;3.40;1.40;;;25.10;80.90;;;;;;5167912;22;20295;-71
2022/03/06 05:25:07;;;;;;;3.65;1.55;;;25.10;80.80;;;;;;5165438;22;20023;-71
2022/03/06 05:27:29;;;;;;;3.70;1.70;;;25.10;81.00;;;;;;5167371;22;20350;-70
2022/03/06 05:29:52;;;;;;;3.13;1.60;;;25.10;81.20;;;;;;5169190;22;20023;-73
2022/03/06 05:32:15;;;;;;;4.20;1.58;;;25.10;81.50;;;;;;5162413;22;20124;-69
2022/03/06 05:34:37;;;;;;;3.00;1.40;;;25.10;81.50;;;;;;5160283;22;20011;-70
2022/03/06 05:37:00;;;;;;;2.90;1.52;;;25.10;81.30;;;;;;5158146;22;20020;-72
2022/03/06 05:39:22;;;;;;;2.95;1.50;;;25.10;81.50;;;;;;5156295;22;20015;-72
2022/03/06 05:41:45;;;;;;;3.20;1.48;;;25.10;81.50;;;;;;5157249;22;20697;-71
2022/03/06 05:44:07;;;;;;;2.83;1.70;;;25.10;81.90;;;;;;5157184;22;20724;-70
2022/03/06 05:46:30;;;;;;;4.75;1.55;;;25.10;81.60;;;;;;5150971;22;20024;-67
2022/03/06 05:48:52;;;;;;;2.40;1.40;;;25.10;81.70;;;;;;5147503;22;20663;-69
2022/03/06 05:51:15;;;;;;;3.03;1.10;;;25.10;81.60;;;;;;5152421;22;20015;-72
2022/03/06 05:53:37;;;;;;;2.97;1.45;;;25.10;81.70;;;;;;5146728;22;20019;-69
2022/03/06 05:56:00;;;;;;;2.55;1.40;;;25.10;81.80;;;;;;5146997;22;20018;-68
2022/03/06 05:58:22;;;;;;;2.90;1.42;;;25.10;81.90;;;;;;5155505;22;20021;-69
2022/03/06 06:00:45;;;;;;;2.42;1.30;;;25.10;81.90;;;;;;5115359;22;20016;-69
2022/03/06 06:03:07;;;;;;;3.22;1.50;;;25.10;82.30;;;;;;5145280;22;20375;-70
2022/03/06 06:05:30;;;;;;;4.10;1.52;;;25.10;82.10;;;;;;5155849;22;20105;-68
2022/03/06 06:07:53;;;;;;;4.25;1.55;;;25.10;82.30;;;;;;5150282;22;20015;-70
2022/03/06 06:10:16;;;;;;;3.08;1.80;;;25.10;82.40;;;;;;5145121;22;20012;-70
2022/03/06 06:12:38;;;;;;;4.95;1.40;;;25.10;82.50;;;;;;5153747;22;20028;-69
2022/03/06 06:15:01;;;;;;;4.90;1.48;;;25.10;82.60;;;;;;5152882;22;20115;-70
2022/03/06 06:17:24;;;;;;;3.58;1.42;;;25.10;82.60;;;;;;5151627;22;20081;-70
2022/03/06 06:19:46;;;;;;;3.83;1.42;;;25.20;82.80;;;;;;5156192;22;20019;-69
2022/03/06 06:22:09;;;;;;;3.72;1.40;;;25.20;82.80;;;;;;5152813;22;20049;-71
2022/03/06 06:24:31;;;;;;;2.70;1.60;;;25.20;82.80;;;;;;5151265;22;20015;-71
2022/03/06 06:26:55;;;;;;;5.47;1.90;;;25.20;82.80;;;;;;5156726;22;20019;-71
2022/03/06 06:29:18;;;;;;;3.13;1.48;;;25.20;82.80;;;;;;5153929;22;20020;-69
2022/03/06 06:31:40;;;;;;;4.10;1.60;;;25.20;83.00;;;;;;5151581;22;20118;-70
2022/03/06 06:34:03;;;;;;;3.35;1.63;;;25.20;82.80;;;;;;5146983;22;20712;-70
2022/03/06 06:36:25;;;;;;;3.42;1.77;;;25.20;82.90;;;;;;5145976;22;20024;-70
2022/03/06 06:38:48;;;;;;;5.32;2.20;;;25.20;83.20;;;;;;5145525;22;20016;-70
2022/03/06 06:41:11;;;;;;;3.33;1.95;;;25.30;83.30;;;;;;5152922;22;20012;-70
2022/03/06 06:43:33;;;;;;;6.47;2.35;;;25.30;83.30;;;;;;5155122;22;20050;-70
2022/03/06 06:45:56;;;;;;;5.80;2.13;;;25.30;83.20;;;;;;5151109;22;20062;-70
2022/03/06 06:48:18;;;;;;;5.03;1.98;;;25.30;83.40;;;;;;5146600;22;20098;-71
2022/03/06 06:50:44;;;;;;;6.53;1.92;;;25.30;83.40;;;;;;5147532;22;20089;-70
2022/03/06 06:53:07;;;;;;;6.75;2.00;;;25.30;83.30;;;;;;5154395;22;20023;-70
2022/03/06 06:55:30;;;;;;;5.85;1.83;;;25.30;83.50;;;;;;5156856;22;20011;-73
2022/03/06 06:57:52;;;;;;;4.30;1.92;;;25.30;83.40;;;;;;5153807;22;20434;-71
2022/03/06 07:00:15;;;;;;;3.60;1.55;;;25.30;83.40;;;;;;5154213;22;20115;-71
2022/03/06 07:02:38;;;;;;;6.70;1.65;;;25.40;83.10;;;;;;5158011;22;20090;-71
2022/03/06 07:05:00;;;;;;;3.67;1.60;;;25.30;83.20;;;;;;5158647;22;20053;-70
2022/03/06 07:07:24;;;;;;;6.47;1.70;;;25.30;83.20;;;;;;5154978;22;20070;-71
2022/03/06 07:09:46;;;;;;;3.70;1.70;;;25.30;83.10;;;;;;5155762;22;20008;-70
2022/03/06 07:12:10;;;;;;;3.75;1.23;;;25.40;83.10;;;;;;5121286;22;20024;-72
2022/03/06 07:14:32;;;;;;;4.10;1.70;;;25.30;83.00;;;;;;5147904;22;20033;-71
2022/03/06 07:16:55;;;;;;;4.55;1.50;;;25.40;83.30;;;;;;5152043;22;20018;-70
2022/03/06 07:19:18;;;;;;;4.80;1.38;;;25.40;83.40;;;;;;5153761;22;20019;-71
2022/03/06 07:21:40;;;;;;;4.82;1.70;;;25.40;83.30;;;;;;5154288;22;20011;-69
2022/03/06 07:24:04;;;;;;;3.80;1.63;;;25.40;83.30;;;;;;5157528;22;20119;-69
2022/03/06 07:26:26;;;;;;;5.35;1.50;;;25.40;83.60;;;;;;5157941;22;20018;-70
2022/03/06 07:28:49;;;;;;;5.15;1.33;;;25.40;83.40;;;;;;5153145;22;20296;-70
2022/03/06 07:31:12;;;;;;;4.80;1.52;;;25.40;83.30;;;;;;5154772;22;20874;-71
2022/03/06 07:33:35;;;;;;;4.32;1.90;;;25.40;83.30;;;;;;5162545;22;20089;-70
2022/03/06 07:35:57;;;;;;;5.05;1.90;;;25.40;83.30;;;;;;5160288;22;20030;-70
2022/03/06 07:38:20;;;;;;;4.43;1.33;;;25.40;83.30;;;;;;5163266;22;20387;-70
2022/03/06 07:40:42;;;;;;;4.13;1.75;;;25.40;83.30;;;;;;5168918;22;20346;-69
2022/03/06 07:43:05;;;;;;;4.78;1.27;;;25.40;83.30;;;;;;5157034;22;20091;-70
2022/03/06 07:45:27;;;;;;;7.20;1.88;;;25.40;83.20;;;;;;5153611;22;20451;-70
2022/03/06 07:47:50;;;;;;;4.25;1.48;;;25.40;83.20;;;;;;5171396;22;20140;-69
2022/03/06 07:50:14;;;;;;;5.82;1.40;;;25.40;83.20;;;;;;5166030;22;20087;-70
2022/03/06 07:52:38;;;;;;;7.00;1.50;;;25.40;83.20;;;;;;5167174;22;20030;-70
2022/03/06 07:55:01;;;;;;;2.63;1.35;;;25.40;83.30;;;;;;5169199;22;20503;-69
2022/03/06 07:57:24;;;;;;;4.53;1.90;;;25.30;83.30;;;;;;5160437;22;20058;-69
2022/03/06 07:59:46;;;;;;;3.38;1.40;;;25.40;83.40;;;;;;5163168;22;20012;-70
2022/03/06 08:02:09;;;;;;;4.85;1.63;;;25.40;83.50;;;;;;5161662;22;20458;-70
2022/03/06 08:04:32;;;;;;;6.70;1.73;;;25.40;83.50;;;;;;5165070;22;20404;-70
2022/03/06 08:06:54;;;;;;;7.07;2.20;;;25.40;83.50;;;;;;5154220;22;20011;-69
2022/03/06 08:09:17;;;;;;;3.60;1.58;;;25.30;83.40;;;;;;5151920;22;20011;-69
2022/03/06 08:11:39;;;;;;;6.03;2.10;;;25.40;83.60;;;;;;5152029;22;20024;-70
2022/03/06 08:14:02;;;;;;;6.65;2.03;;;25.40;83.60;;;;;;5150700;22;20012;-70
2022/03/06 08:16:24;;;;;;;7.07;2.10;;;25.30;83.50;;;;;;5155804;22;21054;-71
2022/03/06 08:18:47;;;;;;;4.88;2.30;;;25.40;83.80;;;;;;5150850;22;20016;-69
2022/03/06 08:21:09;;;;;;;7.20;2.30;;;25.40;84.00;;;;;;5147954;22;20520;-69
2022/03/06 08:23:32;;;;;;;6.53;2.10;;;25.40;84.00;;;;;;5150104;22;20080;-69
2022/03/06 08:25:54;;;;;;;6.13;2.08;;;25.40;84.20;;;;;;5151438;22;20025;-70
2022/03/06 08:28:17;;;;;;;6.88;2.30;;;25.30;84.30;;;;;;5149845;22;20095;-69
2022/03/06 08:30:39;;;;;;;7.32;2.13;;;25.40;84.30;;;;;;5151294;22;21000;-70
2022/03/06 08:33:02;;;;;;;8.63;2.17;;;25.40;84.40;;;;;;5145290;22;20600;-70
2022/03/06 08:35:25;;;;;;;7.17;2.23;;;25.40;84.50;;;;;;5118809;22;20127;-70
2022/03/06 08:37:47;;;;;;;7.70;2.42;;;25.40;84.50;;;;;;5148197;22;20558;-71
2022/03/06 08:40:11;;;;;;;7.82;2.50;;;25.30;84.50;;;;;;5159210;22;20024;-70
2022/03/06 08:42:33;;;;;;;8.55;2.22;;;25.40;84.80;;;;;;5155357;22;20076;-71
2022/03/06 08:44:56;;;;;;;9.02;2.70;;;25.40;84.60;;;;;;5154999;22;21049;-71
2022/03/06 08:47:18;;;;;;;7.65;2.47;;;25.40;84.70;;;;;;5128801;22;20090;-70
2022/03/06 08:49:41;;;;;;;6.28;2.10;;;25.40;84.90;;;;;;5155539;22;20152;-70
2022/03/06 08:52:03;;;;;;;6.93;1.88;;;25.30;84.70;;;;;;5153502;22;20034;-68
2022/03/06 08:54:26;;;;;;;5.18;2.03;;;25.40;84.90;;;;;;5160415;22;20093;-69
2022/03/06 08:56:49;;;;;;;7.00;2.17;;;25.40;84.80;;;;;;5155869;22;20112;-71
2022/03/06 08:59:12;;;;;;;7.60;2.20;;;25.30;84.90;;;;;;5147787;22;20012;-70
2022/03/06 09:01:34;;;;;;;4.70;1.75;;;25.40;85.00;;;;;;5160819;22;20082;-69
2022/03/06 09:03:57;;;;;;;6.88;2.10;;;25.40;84.80;;;;;;5157455;22;20012;-70
2022/03/06 09:06:19;;;;;;;5.68;1.60;;;25.40;84.90;;;;;;5154541;22;20019;-69
2022/03/06 09:08:42;;;;;;;6.40;2.03;;;25.40;84.90;;;;;;5159631;22;20528;-70
2022/03/06 09:11:08;;;;;;;4.30;1.77;;;25.30;84.80;;;;;;5154745;22;20150;-69
2022/03/06 09:13:30;;;;;;;5.57;2.40;;;25.30;84.90;;;;;;5154132;22;20027;-70
2022/03/06 09:15:53;;;;;;;5.53;2.05;;;25.30;84.60;;;;;;5160300;22;20818;-70
2022/03/06 09:18:15;;;;;;;5.57;1.88;;;25.30;84.30;;;;;;5153646;22;20376;-70
2022/03/06 09:20:38;;;;;;;5.32;1.88;;;25.30;84.50;;;;;;5154045;22;20027;-68
2022/03/06 09:23:01;;;;;;;7.47;2.45;;;25.30;84.40;;;;;;5159600;22;20015;-68
2022/03/06 09:25:24;;;;;;;4.80;1.55;;;25.30;84.30;;;;;;5147341;22;20026;-69
2022/03/06 09:27:47;;;;;;;6.18;1.80;;;25.30;84.10;;;;;;5145324;22;20015;-68
2022/03/06 09:30:11;;;;;;;6.78;1.88;;;25.30;84.30;;;;;;5157597;22;20134;-69
2022/03/06 09:32:33;;;;;;;5.07;1.70;;;25.30;84.20;;;;;;5153433;22;20043;-69
2022/03/06 09:34:56;;;;;;;5.25;1.88;;;25.30;84.10;;;;;;5154270;22;20058;-68
2022/03/06 09:37:18;;;;;;;6.32;1.67;;;25.30;84.00;;;;;;5159266;22;20740;-68
2022/03/06 09:39:41;;;;;;;4.32;1.45;;;25.30;84.30;;;;;;5154447;22;20030;-68
2022/03/06 09:42:03;;;;;;;4.97;1.67;;;25.30;84.10;;;;;;5156058;22;20015;-68
2022/03/06 09:44:30;;;;;;;6.47;1.50;;;25.30;84.20;;;;;;5159028;22;20253;-69
2022/03/06 09:46:56;;;;;;;6.57;1.80;;;25.30;84.40;;;;;;5155108;22;20019;-69
2022/03/06 09:49:18;;;;;;;4.90;1.50;;;25.30;84.40;;;;;;5158308;22;20027;-70
2022/03/06 09:51:42;;;;;;;4.82;1.58;;;25.30;84.00;;;;;;5161913;22;20023;-69
2022/03/06 09:54:05;;;;;;;5.20;1.45;;;25.30;83.90;;;;;;5156899;22;20324;-70
2022/03/06 09:56:27;;;;;;;5.70;1.50;;;25.30;83.60;;;;;;5156565;22;20012;-69
2022/03/06 09:58:50;;;;;;;4.70;1.35;;;25.30;84.00;;;;;;5155121;22;20011;-70
2022/03/06 10:01:12;;;;;;;4.63;1.40;;;25.20;83.90;;;;;;5155457;22;20020;-69
2022/03/06 10:03:35;;;;;;;3.35;1.30;;;25.20;83.90;;;;;;5157220;22;20023;-70
2022/03/06 10:05:57;;;;;;;5.50;1.50;;;25.20;83.80;;;;;;5161169;22;20058;-70
2022/03/06 10:08:29;;;;;;;3.88;1.38;;;25.20;83.90;;;;;;5158862;22;20364;-68
2022/03/06 10:11:00;;;;;;;4.47;1.52;;;25.20;84.00;;;;;;5162974;22;20592;-68
2022/03/06 10:13:42;;;;;;;3.10;1.30;;;25.20;84.30;;;;;;5158291;22;20023;-68
2022/03/06 10:16:17;;;;;;;5.32;1.73;;;25.20;84.20;;;;;;5159607;22;20317;-69
2022/03/06 10:18:48;;;;;;;3.75;1.00;;;25.20;84.30;;;;;;5164034;22;20094;-70
2022/03/06 10:21:28;;;;;;;4.45;1.30;;;25.20;84.20;;;;;;5157269;22;20024;-70
2022/03/06 10:23:56;;;;;;;4.03;1.50;;;25.20;84.20;;;;;;5158793;22;20050;-69
2022/03/06 10:26:22;;;;;;;4.05;1.35;;;25.20;84.50;;;;;;5162345;22;20023;-66
2022/03/06 10:28:57;;;;;;;3.42;1.00;;;25.20;84.20;;;;;;5157918;22;20139;-68
2022/03/06 10:31:21;;;;;;;5.40;1.27;;;25.20;84.30;;;;;;5162130;22;20051;-69
2022/03/06 10:34:01;;;;;;;4.15;1.10;;;25.20;84.20;;;;;;5158495;22;20022;-69
2022/03/06 10:36:41;;;;;;;4.38;1.50;;;25.20;84.40;;;;;;5137940;22;20081;-71
2022/03/06 10:39:18;;;;;;;4.13;1.33;;;25.20;83.50;;;;;;5161912;22;20136;-70
2022/03/06 10:41:45;;;;;;;3.83;1.38;;;25.20;84.30;;;;;;5161567;22;20034;-69
2022/03/06 10:44:10;;;;;;;4.00;1.38;;;25.20;84.50;;;;;;5159788;22;20051;-70
2022/03/06 10:46:34;;;;;;;4.72;1.55;;;25.20;84.70;;;;;;5158494;22;20288;-70
2022/03/06 10:48:59;;;;;;;6.70;1.42;;;25.20;85.10;;;;;;5152142;22;20046;-70
2022/03/06 10:51:22;;;;;;;4.43;1.70;;;25.20;84.60;;;;;;5159724;22;20468;-71
2022/03/06 10:53:44;;;;;;;3.05;1.25;;;25.20;84.60;;;;;;5160810;22;20023;-68
2022/03/06 10:56:10;;;;;;;4.88;1.50;;;25.20;84.60;;;;;;5160236;22;20025;-70
2022/03/06 10:58:33;;;;;;;4.05;1.42;;;25.20;84.80;;;;;;5158041;22;20020;-69
2022/03/06 11:00:55;;;;;;;5.07;1.83;;;25.10;84.80;;;;;;5162895;22;20016;-70
2022/03/06 11:03:19;;;;;;;6.75;2.15;;;25.10;84.70;;;;;;5161427;22;20256;-70
2022/03/06 11:05:43;;;;;;;4.20;1.25;;;25.10;84.70;;;;;;5159895;22;20012;-70
2022/03/06 11:08:06;;;;;;;7.32;2.10;;;25.10;84.60;;;;;;5164275;22;20038;-70
2022/03/06 11:10:29;;;;;;;5.40;1.48;;;25.10;84.90;;;;;;5161480;22;20026;-70
2022/03/06 11:12:52;;;;;;;4.22;1.42;;;25.10;84.90;;;;;;5157250;22;20023;-71
2022/03/06 11:15:15;;;;;;;6.90;1.87;;;25.10;84.90;;;;;;5160304;22;20018;-71
2022/03/06 11:17:38;;;;;;;5.82;1.35;;;25.10;85.00;;;;;;5156176;22;20058;-71
2022/03/06 11:20:01;;;;;;;6.35;1.80;;;25.10;84.90;;;;;;5124856;22;20082;-70
2022/03/06 11:22:50;;;;;;;5.68;1.75;;;25.10;85.10;;;;;;5164068;22;20100;-71
2022/03/06 11:25:17;;;;;;;4.40;1.73;;;25.20;84.80;;;;;;5155773;22;20011;-71
2022/03/06 11:27:55;;;;;;;5.47;1.38;;;25.10;85.00;;;;;;5160780;22;20041;-69
2022/03/06 11:30:22;;;;;;;5.55;1.63;;;25.10;85.00;;;;;;5162080;22;20596;-69
2022/03/06 11:32:48;;;;;;;5.22;1.63;;;25.10;85.10;;;;;;5131451;22;20047;-71
2022/03/06 11:35:17;;;;;;;6.40;1.98;;;25.10;85.20;;;;;;5162280;22;20019;-70
2022/03/06 11:37:48;;;;;;;6.20;1.50;;;25.10;85.20;;;;;;5161395;22;20157;-70
2022/03/06 11:40:45;;;;;;;6.50;1.75;;;25.10;85.10;;;;;;5161678;22;20011;-69
2022/03/06 11:43:09;;;;;;;6.47;2.10;;;25.10;85.20;;;;;;5162448;22;20085;-70
2022/03/06 11:46:09;;;;;;;7.03;2.08;;;25.10;85.50;;;;;;5173706;22;20069;-68
2022/03/06 11:48:34;;;;;;;3.75;1.55;;;25.10;85.40;;;;;;5116745;22;20077;-70
2022/03/06 11:51:15;;;;;;;3.75;1.80;;;25.10;85.50;;;;;;5170301;22;20720;-70
2022/03/06 11:54:05;;;;;;;4.18;1.85;;;25.10;85.40;;;;;;5166956;22;20008;-70
2022/03/06 11:56:33;;;;;;;6.07;1.98;;;25.10;85.40;;;;;;5165862;22;20015;-71
2022/03/06 11:58:56;;;;;;;6.72;2.00;;;25.10;85.60;;;;;;5144285;22;20019;-70
2022/03/06 12:01:38;;;;;;;4.63;1.90;;;25.10;86.20;;;;;;5176102;22;20071;-69
2022/03/06 12:04:18;;;;;;;7.78;2.65;;;25.10;85.50;;;;;;5175368;22;20012;-67
2022/03/06 12:06:49;;;;;;;4.85;1.35;;;25.10;86.00;;;;;;5165500;22;20061;-70
2022/03/06 12:09:19;;;;;;;7.60;1.70;;;25.10;85.70;;;;;;5165157;22;20011;-71
2022/03/06 12:11:42;;;;;;;5.47;1.73;;;25.10;86.20;;;;;;5161646;22;20833;-69
2022/03/06 12:14:29;;;;;;;5.03;2.03;;;25.10;86.20;;;;;;5169805;22;20518;-70
2022/03/06 12:17:04;;;;;;;5.78;1.88;;;25.10;85.80;;;;;;5159943;22;20090;-69
2022/03/06 12:19:28;;;;;;;7.68;1.88;;;25.10;86.00;;;;;;5155047;22;20104;-69
2022/03/06 12:21:50;;;;;;;5.90;1.88;;;25.10;87.00;;;;;;5161109;22;20015;-70
2022/03/06 12:24:27;;;;;;;5.95;1.77;;;25.10;86.20;;;;;;5155748;22;20018;-68
2022/03/06 12:26:53;;;;;;;5.63;1.70;;;25.10;86.10;;;;;;5153442;22;20108;-71
2022/03/06 12:30:00;;;;;;;4.70;1.67;;;25.10;86.20;;;;;;5149135;22;20169;-71
2022/03/06 12:32:26;;;;;;;4.80;1.88;;;25.10;86.20;;;;;;5147406;22;20463;-72
2022/03/06 12:34:58;;;;;;;5.88;1.85;;;25.10;86.20;;;;;;5152269;22;20015;-69